Time;durP1;ratioP1;P1;durP2;ratioP2;P2;SDS_P1;SDS_P2;PMS_P1;PMS_P2;Temp;Humidity;BMP_temperature;BMP_pressure;BME280_temperature;BME280_humidity;BME280_pressure;Samples;Min_cycle;Max_cycle;Signal;HPM_P1;HPM_P2
2023/06/13 00:02:28;;;;;;;5.85;4.80;;;;;;;20.25;42.69;98794.06;7270364;40;20381;31
2023/06/13 00:07:49;;;;;;;7.07;4.70;;;;;;;20.29;42.16;98792.53;7253563;39;20268;31
2023/06/13 00:13:26;;;;;;;8.70;5.15;;;;;;;20.15;43.21;98783.72;7258996;40;20361;31
2023/06/13 00:18:45;;;;;;;7.35;5.30;;;;;;;20.24;42.11;98795.16;7257850;40;20241;31
2023/06/13 00:24:20;;;;;;;5.68;4.87;;;;;;;19.97;43.01;98794.78;7272014;40;20259;31
2023/06/13 00:29:56;;;;;;;5.70;4.70;;;;;;;19.81;43.56;98798.22;7247246;40;20248;31
2023/06/13 00:35:31;;;;;;;6.43;4.60;;;;;;;19.69;44.20;98792.75;7240615;40;20246;31
2023/06/13 00:41:06;;;;;;;6.00;4.60;;;;;;;19.78;43.96;98788.59;7189194;40;20258;31
2023/06/13 00:46:44;;;;;;;5.60;4.40;;;;;;;19.69;44.37;98791.91;7258338;40;20276;31
2023/06/13 00:52:18;;;;;;;8.13;4.75;;;;;;;19.62;44.03;98783.78;7217129;40;20240;31
2023/06/13 00:57:55;;;;;;;5.90;4.60;;;;;;;19.73;43.82;98782.16;7218981;40;20325;31
2023/06/13 01:03:30;;;;;;;6.50;4.70;;;;;;;19.61;44.50;98790.34;7027162;40;20266;31
2023/06/13 01:09:04;;;;;;;7.45;4.90;;;;;;;19.63;44.39;98777.25;7196712;40;20260;31
2023/06/13 01:14:40;;;;;;;7.80;4.90;;;;;;;19.70;43.51;98777.16;7257356;40;20237;31
2023/06/13 01:20:14;;;;;;;5.35;4.45;;;;;;;19.79;43.86;98781.19;7279063;40;20330;31
2023/06/13 01:25:52;;;;;;;6.84;4.56;;;;;;;19.54;43.61;98772.38;7207793;40;20245;31
2023/06/13 01:31:27;;;;;;;5.53;4.60;;;;;;;19.38;44.62;98768.38;7240076;40;20242;31
2023/06/13 01:37:03;;;;;;;5.57;4.57;;;;;;;19.39;44.70;98767.31;7217729;40;20386;31
2023/06/13 01:42:25;;;;;;;5.82;4.36;;;;;;;19.29;44.22;98765.16;7193025;40;20358;31
2023/06/13 01:48:01;;;;;;;4.60;4.10;;;;;;;19.27;44.46;98766.44;7209366;40;20262;31
2023/06/13 01:53:37;;;;;;;7.23;4.70;;;;;;;19.26;43.71;98756.59;7203912;40;20550;31
2023/06/13 02:04:18;;;;;;;4.46;4.06;;;;;;;19.22;44.25;98758.09;7264108;40;20260;31
2023/06/13 02:09:53;;;;;;;4.93;4.00;;;;;;;19.22;43.64;98758.09;7221976;40;20431;31
2023/06/13 02:15:14;;;;;;;5.93;3.90;;;;;;;19.14;43.63;98761.16;7240807;40;20276;31
2023/06/13 02:25:55;;;;;;;7.30;3.70;;;;;;;19.05;44.19;98752.47;7309783;39;20260;31
2023/06/13 02:31:35;;;;;;;4.50;4.10;;;;;;;18.94;44.40;98747.81;7305263;39;20226;31
2023/06/13 02:36:48;;;;;;;6.03;4.00;;;;;;;18.82;44.66;98752.38;7297491;39;20338;31
2023/06/13 02:42:25;;;;;;;4.50;3.65;;;;;;;18.80;44.72;98732.66;7316898;39;20268;31
2023/06/13 02:53:04;;;;;;;4.27;3.60;;;;;;;18.78;43.80;98735.59;7269459;39;21517;31
2023/06/13 03:03:47;;;;;;;4.30;3.50;;;;;;;18.83;43.96;98738.47;7312129;39;20374;31
2023/06/13 03:09:21;;;;;;;4.80;3.70;;;;;;;18.88;44.23;98748.72;7317676;39;20259;31
2023/06/13 03:14:57;;;;;;;5.20;3.90;;;;;;;18.97;43.85;98747.31;7337820;39;20256;31
2023/06/13 03:20:37;;;;;;;4.43;3.72;;;;;;;18.84;43.56;98751.06;7318218;39;20265;31
2023/06/13 03:26:09;;;;;;;5.05;3.40;;;;;;;18.81;43.95;98761.63;7265188;40;20610;31
2023/06/13 03:31:44;;;;;;;5.65;3.60;;;;;;;18.74;44.14;98758.13;7243549;40;20257;31
2023/06/13 03:37:22;;;;;;;4.27;3.33;;;;;;;18.67;44.79;98760.97;7287726;39;20377;31
2023/06/13 03:47:47;;;;;;;5.70;4.20;;;;;;;18.63;44.31;98764.38;7243192;40;20293;31
2023/06/13 03:58:40;;;;;;;5.05;3.40;;;;;;;18.59;44.55;98774.09;7333870;39;20259;31
2023/06/13 04:09:20;;;;;;;4.10;3.60;;;;;;;18.46;45.54;98786.81;7339311;39;20352;31
2023/06/13 04:19:59;;;;;;;5.40;3.40;;;;;;;18.43;46.06;98792.69;7268854;40;20269;31
2023/06/13 04:25:35;;;;;;;5.20;3.70;;;;;;;18.50;45.80;98797.25;7240611;40;20280;31
2023/06/13 04:30:56;;;;;;;8.20;3.70;;;;;;;18.57;45.42;98798.88;7250613;39;20283;31
2023/06/13 04:36:32;;;;;;;4.20;3.70;;;;;;;18.51;45.55;98809.84;7300164;40;20256;31
2023/06/13 04:42:06;;;;;;;6.75;3.95;;;;;;;18.54;45.57;98814.88;7267101;39;20257;31
2023/06/13 04:52:53;;;;;;;6.70;3.40;;;;;;;18.65;46.06;98817.69;7264912;40;20283;31
2023/06/13 04:58:23;;;;;;;7.85;3.60;;;;;;;18.69;46.05;98818.88;7271926;40;20256;31
2023/06/13 05:03:42;;;;;;;8.60;3.55;;;;;;;18.86;45.94;98825.44;7312978;39;20382;31
2023/06/13 05:09:19;;;;;;;6.65;3.35;;;;;;;18.96;45.78;98824.03;7342985;39;20396;31
2023/06/13 05:14:54;;;;;;;5.40;3.40;;;;;;;19.08;46.10;98824.94;7217437;40;20347;31
2023/06/13 05:20:30;;;;;;;8.00;3.70;;;;;;;19.13;45.73;98831.38;7262950;40;20250;31
2023/06/13 05:26:05;;;;;;;14.30;4.20;;;;;;;19.31;45.40;98823.12;7242136;40;20250;31
2023/06/13 05:31:40;;;;;;;5.30;3.20;;;;;;;19.43;45.23;98836.91;7215238;40;20337;31
2023/06/13 05:37:01;;;;;;;5.20;3.37;;;;;;;19.59;44.39;98849.91;7178765;40;20262;31
2023/06/13 05:42:38;;;;;;;5.40;3.65;;;;;;;19.64;44.75;98841.81;7192290;40;20422;31
2023/06/13 05:47:58;;;;;;;5.50;3.40;;;;;;;19.82;45.02;98846.41;7200844;40;20304;31
2023/06/13 05:53:18;;;;;;;4.43;3.30;;;;;;;19.91;44.59;98858.66;7272855;39;20879;31
2023/06/13 05:58:52;;;;;;;6.80;3.70;;;;;;;20.16;44.26;98837.41;7319225;39;20708;31
2023/06/13 06:04:28;;;;;;;4.43;3.30;;;;;;;20.22;44.77;98835.63;7250990;39;20340;31
2023/06/13 06:10:05;;;;;;;4.07;3.37;;;;;;;20.27;44.02;98843.13;7301659;39;20634;31
2023/06/13 06:15:41;;;;;;;3.40;3.10;;;;;;;20.38;44.34;98831.34;7236630;40;20242;31
2023/06/13 06:21:02;;;;;;;4.63;3.73;;;;;;;20.68;44.11;98837.50;7257268;40;20812;31
2023/06/13 06:26:37;;;;;;;4.77;3.60;;;;;;;20.72;43.54;98835.13;7272422;40;20928;31
2023/06/13 06:32:11;;;;;;;6.33;3.30;;;;;;;20.94;43.25;98838.88;7298130;39;20264;31
2023/06/13 06:42:37;;;;;;;5.03;3.20;;;;;;;21.25;41.87;98846.69;7267291;40;21093;31
2023/06/13 06:48:11;;;;;;;6.20;3.22;;;;;;;21.48;41.69;98843.03;7320351;39;20244;31
2023/06/13 06:53:46;;;;;;;6.40;3.15;;;;;;;21.63;40.52;98847.97;7267069;40;20932;31
2023/06/13 06:59:07;;;;;;;3.83;3.20;;;;;;;21.76;39.44;98843.03;7265209;40;20268;31
2023/06/13 07:04:42;;;;;;;5.50;3.28;;;;;;;;;;7278825;39;20308;31
2023/06/13 07:10:17;;;;;;;5.53;2.95;;;;;;;21.93;37.21;98838.41;7260778;40;20778;31
2023/06/13 07:15:52;;;;;;;4.65;2.80;;;;;;;21.90;37.42;98851.75;7247883;40;20245;31
2023/06/13 07:21:28;;;;;;;3.90;2.80;;;;;;;21.89;37.17;98853.69;7300079;40;20596;31
2023/06/13 07:26:50;;;;;;;10.30;3.10;;;;;;;21.80;35.66;98846.94;7249587;40;20400;31
2023/06/13 07:37:31;;;;;;;4.60;3.20;;;;;;;22.18;35.52;98840.72;7283303;40;21155;31
2023/06/13 07:48:11;;;;;;;5.35;2.78;;;;;;;22.63;36.02;98835.09;7302343;39;20387;31
2023/06/13 07:58:51;;;;;;;7.10;3.20;;;;;;;22.93;35.05;98812.72;7268256;39;20409;31
2023/06/13 08:09:31;;;;;;;8.82;3.00;;;;;;;23.18;34.76;98817.69;7323511;39;21188;31
2023/06/13 08:15:08;;;;;;;3.75;2.95;;;;;;;23.31;34.10;98811.78;7299007;39;20253;31
2023/06/13 08:20:30;;;;;;;3.90;2.95;;;;;;;23.46;35.59;98816.66;7238486;40;20269;31
2023/06/13 08:25:50;;;;;;;5.63;3.20;;;;;;;23.80;35.19;98812.59;7076925;40;20233;31
2023/06/13 08:31:25;;;;;;;4.00;2.90;;;;;;;23.88;33.06;98811.28;7260704;39;20429;31
2023/06/13 08:37:00;;;;;;;3.80;2.90;;;;;;;24.09;34.42;98813.94;7206037;40;20317;31
2023/06/13 08:42:36;;;;;;;7.35;2.87;;;;;;;24.22;33.36;98808.00;7258584;39;20244;31
2023/06/13 08:48:13;;;;;;;5.87;3.10;;;;;;;24.30;32.13;98806.69;7281815;39;20249;31
2023/06/13 08:53:48;;;;;;;4.70;3.05;;;;;;;24.26;32.55;98804.75;7241579;40;20274;31
2023/06/13 08:59:23;;;;;;;5.55;3.10;;;;;;;24.31;31.89;98802.03;7220573;40;20238;31
2023/06/13 09:04:58;;;;;;;3.72;2.92;;;;;;;24.46;31.49;98808.44;7189262;40;20260;31
2023/06/13 09:10:33;;;;;;;6.05;3.12;;;;;;;24.57;32.27;98792.81;7239767;40;20241;31
2023/06/13 09:16:08;;;;;;;4.00;2.80;;;;;;;24.62;31.25;98801.09;7239739;40;20238;31
2023/06/13 09:21:45;;;;;;;4.02;2.80;;;;;;;24.62;31.93;98792.81;7159146;40;20246;31
2023/06/13 09:27:21;;;;;;;6.03;3.10;;;;;;;24.60;31.43;98801.38;7167071;40;20251;31
2023/06/13 09:32:58;;;;;;;5.03;3.22;;;;;;;24.83;31.11;98804.81;7168159;40;20317;31
2023/06/13 09:38:35;;;;;;;4.82;3.20;;;;;;;24.91;30.05;98801.56;7181284;40;20246;31
2023/06/13 09:44:10;;;;;;;7.53;3.00;;;;;;;25.19;31.33;98805.81;7184356;40;20262;31
2023/06/13 09:49:45;;;;;;;3.83;2.93;;;;;;;25.40;31.48;98797.31;7207753;40;20257;31
2023/06/13 09:55:20;;;;;;;6.18;3.10;;;;;;;25.37;30.78;98792.31;7170636;40;20246;31
2023/06/13 10:00:41;;;;;;;5.95;3.35;;;;;;;25.32;30.63;98783.22;7142795;40;20243;31
2023/06/13 10:06:16;;;;;;;3.57;3.27;;;;;;;25.48;31.15;98788.50;7186508;40;20251;31
2023/06/13 10:11:53;;;;;;;6.00;3.28;;;;;;;25.74;31.18;98769.22;7166582;40;20251;31
2023/06/13 10:17:29;;;;;;;3.75;2.90;;;;;;;25.92;29.51;98776.97;7267799;39;20266;31
2023/06/13 10:23:04;;;;;;;4.23;2.60;;;;;;;26.23;30.25;98761.22;7310482;39;20438;31
2023/06/13 10:28:41;;;;;;;5.28;3.40;;;;;;;26.38;29.23;98756.47;7237827;40;20257;31
2023/06/13 10:34:19;;;;;;;6.60;2.90;;;;;;;26.44;29.32;98768.38;7207332;40;20265;31
2023/06/13 10:39:57;;;;;;;7.05;3.10;;;;;;;26.27;29.52;98770.62;7218902;40;20540;31
2023/06/13 10:45:33;;;;;;;5.55;3.15;;;;;;;26.45;29.94;98778.31;7274448;39;20237;31
2023/06/13 10:51:08;;;;;;;6.55;3.15;;;;;;;26.68;28.98;98758.31;7237208;40;20496;31
2023/06/13 10:56:44;;;;;;;4.75;2.80;;;;;;;26.59;29.22;98765.53;7244266;40;20425;31
2023/06/13 11:02:22;;;;;;;5.05;2.72;;;;;;;26.67;28.41;98753.09;7177475;40;20426;31
2023/06/13 11:08:01;;;;;;;4.43;2.80;;;;;;;26.89;27.86;98742.53;7176829;40;20369;31
2023/06/13 11:13:38;;;;;;;5.50;3.02;;;;;;;27.06;26.92;98734.69;7218221;40;20281;31
2023/06/13 11:19:12;;;;;;;4.20;2.70;;;;;;;27.25;27.55;98740.41;7207877;40;20250;31
2023/06/13 11:24:48;;;;;;;6.07;3.50;;;;;;;27.26;27.62;98726.25;7238951;40;20450;31
2023/06/13 11:30:09;;;;;;;4.67;2.70;;;;;;;27.30;27.22;98730.09;7253749;40;20249;31
2023/06/13 11:35:45;;;;;;;8.93;3.40;;;;;;;27.30;26.83;98732.03;7319916;39;20260;31
2023/06/13 11:41:20;;;;;;;6.40;3.40;;;;;;;27.51;26.61;98738.31;7268419;39;20290;31
2023/06/13 11:46:58;;;;;;;4.30;3.00;;;;;;;27.55;26.64;98718.06;7254489;40;20572;31
2023/06/13 11:52:35;;;;;;;4.53;3.17;;;;;;;27.77;25.74;98712.91;7196912;40;20442;31
2023/06/13 11:57:56;;;;;;;6.26;3.24;;;;;;;27.93;26.23;98729.38;7193055;40;20281;31
2023/06/13 12:03:30;;;;;;;4.45;3.05;;;;;;;27.94;26.40;98714.41;7192891;40;20257;31
2023/06/13 12:09:07;;;;;;;5.70;3.40;;;;;;;27.82;26.92;98697.37;7257136;39;20270;31
2023/06/13 12:14:42;;;;;;;3.80;2.70;;;;;;;27.91;25.79;98692.84;7271672;40;20484;31
2023/06/13 12:20:24;;;;;;;6.40;3.10;;;;;;;28.20;25.95;98696.44;7308538;39;20465;31
2023/06/13 12:25:56;;;;;;;3.60;2.90;;;;;;;28.33;25.57;98689.37;7297690;39;20319;31
2023/06/13 12:31:33;;;;;;;3.65;3.15;;;;;;;28.51;25.32;98680.28;7236311;40;20258;31
2023/06/13 12:37:09;;;;;;;5.60;3.05;;;;;;;28.57;24.22;98679.09;7237928;40;20242;31
2023/06/13 12:42:43;;;;;;;4.80;3.37;;;;;;;28.71;24.77;98674.50;7226996;40;20394;31
2023/06/13 12:48:04;;;;;;;3.75;2.80;;;;;;;28.72;25.56;98670.62;7226231;40;20257;31
2023/06/13 12:53:39;;;;;;;4.35;3.20;;;;;;;28.72;24.29;98667.00;7255517;40;20486;31
2023/06/13 13:04:20;;;;;;;5.90;3.60;;;;;;;28.74;23.92;98659.22;7256488;39;20260;31
2023/06/13 13:09:56;;;;;;;3.53;3.05;;;;;;;28.89;22.95;98645.97;7346384;39;20248;31
2023/06/13 13:15:31;;;;;;;5.25;3.28;;;;;;;28.95;23.16;98638.38;7342636;39;20407;31
2023/06/13 13:21:07;;;;;;;3.73;3.13;;;;;;;28.93;24.29;98637.84;7276729;40;20307;31
2023/06/13 13:26:43;;;;;;;7.27;3.50;;;;;;;28.95;24.38;98630.91;7206680;40;20266;31
2023/06/13 13:32:17;;;;;;;5.90;3.28;;;;;;;29.07;23.13;98622.09;7214986;40;20406;31
2023/06/13 13:37:53;;;;;;;4.05;3.25;;;;;;;29.10;23.88;98622.31;7245177;40;20249;31
2023/06/13 13:43:14;;;;;;;5.95;3.30;;;;;;;29.27;22.72;98626.53;7239021;40;20295;31
2023/06/13 13:48:34;;;;;;;9.80;2.97;;;;;;;29.20;22.72;98618.56;7278775;40;20748;31
2023/06/13 13:54:11;;;;;;;3.72;3.03;;;;;;;29.42;22.02;98606.84;7281246;39;20751;31
2023/06/13 14:04:49;;;;;;;4.00;3.20;;;;;;;29.16;22.34;98611.97;7282922;40;20273;31
2023/06/13 14:10:24;;;;;;;8.70;3.50;;;;;;;29.07;22.46;98597.13;7292904;39;20842;31
2023/06/13 14:21:03;;;;;;;6.47;3.45;;;;;;;29.24;24.27;98577.97;7314821;39;21134;31
2023/06/13 14:26:39;;;;;;;4.68;2.92;;;;;;;29.15;23.82;98579.78;7267388;39;20745;31
2023/06/13 14:32:01;;;;;;;5.00;3.50;;;;;;;29.16;22.88;98586.16;7223070;40;20775;31
2023/06/13 14:37:35;;;;;;;3.23;2.93;;;;;;;29.23;23.33;98575.47;7280700;40;20535;31
2023/06/13 14:43:08;;;;;;;9.20;3.72;;;;;;;29.18;22.48;98573.59;7104163;39;20248;31
2023/06/13 14:48:29;;;;;;;7.55;3.40;;;;;;;29.03;22.75;98563.59;7252484;40;20281;31
2023/06/13 14:54:03;;;;;;;7.30;3.15;;;;;;;29.15;23.72;98556.72;7257637;40;20451;31
2023/06/13 14:59:40;;;;;;;4.00;3.15;;;;;;;29.18;23.95;98543.06;7241959;40;20313;31
2023/06/13 15:05:14;;;;;;;4.70;3.05;;;;;;;29.13;23.12;98545.94;7246092;40;20446;31
2023/06/13 15:10:50;;;;;;;4.95;3.20;;;;;;;29.27;23.41;98532.91;7268521;39;20250;31
2023/06/13 15:16:26;;;;;;;3.62;2.90;;;;;;;29.30;23.41;98526.81;7246928;40;20265;31
2023/06/13 15:21:46;;;;;;;6.05;3.30;;;;;;;29.23;22.68;98531.88;7268652;40;20326;31
2023/06/13 15:32:27;;;;;;;3.75;2.80;;;;;;;29.11;23.00;98528.75;7319253;39;20276;31
2023/06/13 15:42:51;;;;;;;4.32;3.08;;;;;;;29.41;23.73;98517.13;7359908;39;21267;31
2023/06/13 15:53:30;;;;;;;4.30;3.20;;;;;;;29.65;23.11;98516.97;7366568;39;20471;31
2023/06/13 15:58:50;;;;;;;4.50;3.10;;;;;;;29.37;22.38;98523.63;7357811;39;20265;31
2023/06/13 16:04:25;;;;;;;4.22;3.30;;;;;;;29.44;23.62;98524.84;7364963;39;20465;31
2023/06/13 16:09:59;;;;;;;4.20;3.10;;;;;;;29.48;22.61;98512.03;7377172;39;21078;31
2023/06/13 16:15:34;;;;;;;4.90;3.08;;;;;;;29.42;22.62;98513.25;7335998;39;20233;31
2023/06/13 16:20:54;;;;;;;7.00;3.20;;;;;;;29.50;23.36;98523.63;7248190;39;20284;31
2023/06/13 16:26:29;;;;;;;5.20;3.20;;;;;;;29.48;21.93;98514.81;7229926;40;20477;31
2023/06/13 16:31:49;;;;;;;6.20;2.90;;;;;;;29.52;23.30;98510.28;7200799;40;20342;31
2023/06/13 16:37:10;;;;;;;5.53;3.27;;;;;;;29.31;23.28;98508.19;7221274;40;20273;31
2023/06/13 16:42:47;;;;;;;5.12;3.92;;;;;;;29.11;22.42;98517.66;7244898;40;20567;31
2023/06/13 16:47:52;;;;;;;4.17;3.38;;;;;;;28.83;22.01;98511.19;7252244;40;20249;31
2023/06/13 16:53:10;;;;;;;5.05;3.40;;;;;;;28.99;23.21;98506.22;7261640;40;20260;31
2023/06/13 16:58:47;;;;;;;3.45;3.05;;;;;;;28.80;23.42;98516.50;7277229;39;20847;31
2023/06/13 17:04:22;;;;;;;5.65;3.15;;;;;;;28.56;23.37;98506.31;7268030;40;20263;31
2023/06/13 17:09:57;;;;;;;4.92;3.28;;;;;;;28.35;23.47;98516.03;7259231;40;20447;31
2023/06/13 17:20:36;;;;;;;4.78;3.40;;;;;;;27.89;24.15;98504.72;7251513;39;21284;31
2023/06/13 17:25:56;;;;;;;4.85;3.35;;;;;;;27.85;24.03;98517.50;7299057;39;20263;31
2023/06/13 17:31:32;;;;;;;4.05;3.20;;;;;;;27.63;24.47;98514.44;7259452;40;20647;31
2023/06/13 17:37:06;;;;;;;4.04;3.30;;;;;;;27.48;25.07;98507.13;7338301;39;20256;31
2023/06/13 17:42:41;;;;;;;5.05;3.30;;;;;;;27.38;24.69;98517.47;7238495;40;20834;31
2023/06/13 17:48:02;;;;;;;4.63;3.70;;;;;;;27.19;25.05;98528.44;7185471;40;20569;31
2023/06/13 17:53:38;;;;;;;6.03;3.50;;;;;;;27.11;25.20;98529.06;7179668;40;20470;31
2023/06/13 17:58:58;;;;;;;4.95;3.70;;;;;;;27.10;25.20;98535.72;7166928;40;20277;31
2023/06/13 18:04:20;;;;;;;3.95;3.20;;;;;;;27.13;25.98;98546.19;7222666;40;20424;31
2023/06/13 18:09:57;;;;;;;6.22;3.94;;;;;;;26.96;26.16;98537.47;7265865;39;20274;31
2023/06/13 18:15:30;;;;;;;4.60;3.47;;;;;;;26.92;25.91;98550.25;7290727;39;20264;31
2023/06/13 18:20:50;;;;;;;5.93;3.50;;;;;;;26.77;25.97;98549.19;7321749;39;20260;31
2023/06/13 18:26:25;;;;;;;4.40;3.60;;;;;;;26.72;26.18;98551.19;7308735;39;20250;31
2023/06/13 18:31:45;;;;;;;5.45;3.25;;;;;;;26.65;27.23;98559.81;7292927;40;20375;31
2023/06/13 18:37:21;;;;;;;6.32;3.90;;;;;;;26.61;26.90;98561.50;7254313;40;20443;31
2023/06/13 18:42:57;;;;;;;4.32;3.00;;;;;;;26.45;26.91;98559.94;7263928;40;20252;31
2023/06/13 18:48:32;;;;;;;4.30;3.25;;;;;;;26.43;27.32;98560.22;7271639;40;20252;31
2023/06/13 18:54:07;;;;;;;5.55;3.03;;;;;;;26.40;27.18;98562.72;7237650;40;20431;31
2023/06/13 18:59:46;;;;;;;5.28;3.45;;;;;;;26.25;28.25;98574.69;7257334;40;20253;31
2023/06/13 19:05:18;;;;;;;8.10;3.25;;;;;;;26.07;28.85;98574.44;7201348;40;20242;31
2023/06/13 19:10:39;;;;;;;4.55;3.25;;;;;;;25.86;30.78;98582.81;7188008;40;20278;31
2023/06/13 19:16:15;;;;;;;11.90;3.50;;;;;;;25.54;31.37;98590.59;7242224;40;20444;31
2023/06/13 19:21:36;;;;;;;11.12;4.06;;;;;;;25.46;30.17;98602.19;7240806;40;20294;31
2023/06/13 19:27:11;;;;;;;15.85;3.75;;;;;;;25.24;30.77;98596.94;7254782;40;20261;31
2023/06/13 19:32:48;;;;;;;89.46;8.18;;;;;;;24.88;32.75;98606.31;7214387;40;20254;31
2023/06/13 19:38:23;;;;;;;77.43;7.75;;;;;;;24.54;32.80;98614.19;7253181;40;20229;31
2023/06/13 19:43:58;;;;;;;83.12;7.37;;;;;;;24.34;33.26;98623.22;7296014;39;20318;31
2023/06/13 19:49:35;;;;;;;26.70;4.35;;;;;;;24.24;33.56;98628.69;7256865;40;20260;31
2023/06/13 19:55:12;;;;;;;10.65;3.87;;;;;;;24.09;34.23;98629.41;7248548;40;20338;31
2023/06/13 20:00:30;;;;;;;13.35;3.60;;;;;;;23.73;34.68;98639.41;7290413;39;20403;31
2023/06/13 20:06:07;;;;;;;5.30;3.40;;;;;;;23.48;34.83;98641.97;7265897;39;20577;31
2023/06/13 20:11:28;;;;;;;13.05;3.85;;;;;;;23.30;33.75;98645.09;7300647;39;20457;31
2023/06/13 20:16:49;;;;;;;13.52;4.10;;;;;;;23.20;34.78;98640.34;7366235;39;20272;31
2023/06/13 20:22:24;;;;;;;8.45;3.80;;;;;;;22.97;35.28;98657.16;7305624;39;20259;31
2023/06/13 20:28:01;;;;;;;13.70;3.80;;;;;;;22.64;35.74;98660.09;7203218;40;20357;31
2023/06/13 20:38:40;;;;;;;7.80;3.87;;;;;;;22.61;35.53;98652.34;7182371;40;21187;31
2023/06/13 20:49:06;;;;;;;20.12;4.12;;;;;;;22.30;36.11;98660.22;7315748;39;20279;31
2023/06/13 20:54:42;;;;;;;16.35;4.10;;;;;;;22.10;36.89;98659.97;7339035;39;20402;31
2023/06/13 21:00:21;;;;;;;10.00;3.55;;;;;;;22.08;36.44;98662.13;7293615;40;20342;31
2023/06/13 21:05:41;;;;;;;15.35;3.70;;;;;;;21.92;36.17;98665.72;7278255;39;20241;31
2023/06/13 21:11:17;;;;;;;18.43;4.20;;;;;;;21.41;37.00;98672.34;7299384;39;20342;31
2023/06/13 21:16:54;;;;;;;13.10;4.47;;;;;;;21.03;38.08;98671.09;7254247;40;20248;31
2023/06/13 21:22:15;;;;;;;7.83;4.17;;;;;;;20.97;39.13;98663.03;7231148;40;20238;31
2023/06/13 21:27:50;;;;;;;5.35;3.75;;;;;;;20.73;38.51;98666.97;7075361;40;20258;31
2023/06/13 21:33:10;;;;;;;5.78;3.60;;;;;;;20.55;39.79;98670.72;7224487;40;20634;31
2023/06/13 21:43:45;;;;;;;4.27;3.67;;;;;;;20.14;39.70;98660.84;7283049;39;20280;31
2023/06/13 21:49:05;;;;;;;4.20;3.30;;;;;;;20.01;39.99;98658.34;7276102;40;20245;31
2023/06/13 21:54:25;;;;;;;4.25;3.70;;;;;;;19.93;39.85;98655.97;7346392;39;20266;31
2023/06/13 22:00:01;;;;;;;7.60;3.45;;;;;;;19.73;40.25;98661.81;7276620;40;20253;31
2023/06/13 22:05:37;;;;;;;7.80;3.60;;;;;;;19.79;40.57;98656.22;7256762;40;20245;31
2023/06/13 22:11:12;;;;;;;9.70;3.65;;;;;;;19.67;40.57;98658.13;7221075;40;20274;31
2023/06/13 22:21:52;;;;;;;6.40;3.87;;;;;;;19.49;40.73;98655.50;7322138;39;20489;31
2023/06/13 22:27:27;;;;;;;7.00;3.60;;;;;;;19.37;41.51;98660.94;7308929;39;20267;31
2023/06/13 22:33:03;;;;;;;5.20;3.40;;;;;;;19.26;41.27;98667.22;7304218;39;20260;31
2023/06/13 22:38:37;;;;;;;8.23;3.53;;;;;;;19.48;40.69;98669.44;7276349;39;20242;31
2023/06/13 22:44:13;;;;;;;5.55;3.17;;;;;;;19.62;40.42;98673.56;7235536;40;20238;31
2023/06/13 22:49:50;;;;;;;6.05;3.20;;;;;;;19.67;40.24;98671.81;7242656;40;20277;31
2023/06/13 22:55:25;;;;;;;3.62;3.05;;;;;;;19.79;40.07;98671.78;7280669;40;20245;31
2023/06/13 23:01:01;;;;;;;4.23;3.20;;;;;;;19.57;40.34;98679.75;7254863;40;20366;31
2023/06/13 23:06:22;;;;;;;4.60;3.30;;;;;;;19.48;41.18;98689.41;7281190;39;20237;31
2023/06/13 23:11:59;;;;;;;5.15;3.10;;;;;;;19.51;41.17;98680.72;7245938;40;20262;31
2023/06/13 23:22:42;;;;;;;4.40;3.50;;;;;;;19.74;41.06;98683.47;7260319;39;20511;31
2023/06/13 23:28:19;;;;;;;4.40;3.42;;;;;;;19.73;40.89;98694.66;7256020;40;20245;31
2023/06/13 23:33:55;;;;;;;7.53;3.43;;;;;;;19.95;39.76;98689.41;7245359;40;20374;31
2023/06/13 23:39:16;;;;;;;5.28;3.80;;;;;;;19.99;39.88;98687.84;7276510;40;20297;31
2023/06/13 23:49:56;;;;;;;3.78;3.37;;;;;;;19.88;40.18;98684.03;7344078;39;21088;31
2023/06/13 23:55:18;;;;;;;5.60;3.90;;;;;;;19.75;40.32;98690.59;7338173;39;20281;31
